Marion, VA (24354)

08:34 PM EST die 17o January, anno 2017 (GMT -0500)
The Bank of Marion | | Change Station

Elev 2182 ft 36.83 °N, 81.52 °W | Updated 42 seconds ago

Aequaliter Nubila
Aequaliter Nubila
55.2 °F
Feels Like 55.2 °F
N
4.0
Ventus Variabilis Ventus from Zephyrus
Gusts 9.0 mph

Hodie
High -- | Low -- °F
--% Chance of Precip.
Yesterday
High -- | Low -- °F
Precip. -- in
Pressio 30.06 in
Visibilitas 7.0 milia passuum
Clouds Aequaliter Nubila 400 ft
Frigus in quo Ros apparet 54 °F
Umor 97%
Rainfall 0.18 in
Snow Depth Not available.
7:37 AM 5:35 PM
Waning Gibbous, 68% visible
METAR KMKJ 180115Z AUTO 27017G21KT 7SM OVC004 14/13 A3006 RMK AO2 T01360130
Pressio 30.06 in
Visibilitas 7.0 milia passuum
Clouds Aequaliter Nubila 400 ft
Frigus in quo Ros apparet 54 °F
Umor 97%
Rainfall 0.18 in
Snow Depth Not available.
7:37 AM 5:35 PM
Waning Gibbous, 68% visible
METAR KMKJ 180115Z AUTO 27017G21KT 7SM OVC004 14/13 A3006 RMK AO2 T01360130

Get Your Daily Forecast Email!

Thanks for signing up!

Be on the lookout for a verification email in your inbox.

You'll start receiving the daily forecast at 8 AM.

×

10-Day Weather Forecast

Almanac

Astronomy

Jan. 17, 2017 Rise Set
Actual Time
Civil Twilight
Nautical Twilight
Astronomical Twilight
Moon
Length Of Visible Light
Length of Day
Tomorrow will be .
, % of the Moon is Illuminated

Today's Extremes

State Highs State Lows

Community

WunderPhotos

Upload Photos

1,962,540 photos uploaded!

WunderBlog® & News

Nearby

Air Quality

  Air Quality AQ Index Pollutant
Not available.

Snow Depth

Station Depth Elevation

Earthquake Activity

City Distance Mag. Time & Date
Minimum magnitude displayed is 2.5.

Coastal Water Temperatures

Locus Calor

Stations

Nearby Weather Stations

Station Location Temp Frigus Venti Frigus in quo Ros apparet Umor Ventus Precip. Elev Renovata Type
                   

Watches & Warnings

There are currently no watches in effect.